Time;durP1;ratioP1;P1;durP2;ratioP2;P2;SDS_P1;SDS_P2;PMS_P1;PMS_P2;Temp;Humidity;BMP_temperature;BMP_pressure;BME280_temperature;BME280_humidity;BME280_pressure;Samples;Min_cycle;Max_cycle;Signal;HPM_P1;HPM_P2
2022/08/13 00:02:17;;;;;;;3.10;2.47;;;22.70;57.60;;;;;;5085083;28;20913;-36
2022/08/13 00:04:59;;;;;;;3.10;2.80;;;22.60;57.90;;;;;;5089577;28;20526;-35
2022/08/13 00:07:27;;;;;;;2.80;2.60;;;22.40;59.20;;;;;;5087959;28;20580;-36
2022/08/13 00:09:54;;;;;;;6.47;2.90;;;22.30;59.70;;;;;;5089476;28;20430;-36
2022/08/13 00:15:16;;;;;;;3.70;3.27;;;22.10;61.40;;;;;;5089341;28;20427;-36
2022/08/13 00:17:43;;;;;;;4.53;3.20;;;22.10;61.70;;;;;;5088981;28;20829;-36
2022/08/13 00:20:11;;;;;;;6.33;3.23;;;22.00;60.80;;;;;;5084863;28;20435;-36
2022/08/13 00:22:37;;;;;;;3.30;3.00;;;22.00;61.20;;;;;;5085029;28;20430;-36
2022/08/13 00:25:06;;;;;;;2.70;2.50;;;22.00;60.70;;;;;;5089355;28;20419;-36
2022/08/13 00:27:32;;;;;;;2.93;2.67;;;21.90;61.70;;;;;;5088857;28;20196;-36
2022/08/13 00:29:57;;;;;;;3.40;2.70;;;22.00;61.50;;;;;;5089032;28;20425;-36
2022/08/13 00:32:31;;;;;;;2.70;2.50;;;21.90;62.80;;;;;;5089560;28;20643;-36
2022/08/13 00:34:59;;;;;;;2.90;2.70;;;21.80;63.80;;;;;;5089624;28;20200;-36
2022/08/13 00:37:26;;;;;;;4.90;2.43;;;21.70;64.50;;;;;;5088674;28;20469;-36
2022/08/13 00:39:53;;;;;;;4.10;2.87;;;21.60;64.50;;;;;;5075858;28;20557;-36
2022/08/13 00:42:24;;;;;;;3.23;2.80;;;21.50;64.80;;;;;;5089222;28;20430;-36
2022/08/13 00:44:50;;;;;;;3.20;2.47;;;21.50;65.90;;;;;;5089132;28;20413;-36
2022/08/13 00:50:03;;;;;;;2.30;2.10;;;21.50;65.20;;;;;;5089265;28;20422;-36
2022/08/13 00:52:31;;;;;;;3.30;2.40;;;21.50;64.90;;;;;;5089175;28;20782;-36
2022/08/13 00:55:02;;;;;;;5.20;2.30;;;21.50;64.70;;;;;;5087803;28;20762;-36
2022/08/13 00:57:31;;;;;;;2.50;2.30;;;21.60;63.90;;;;;;5088651;28;20493;-36
2022/08/13 00:59:58;;;;;;;2.30;2.10;;;21.70;62.80;;;;;;5092893;28;20429;-36
2022/08/13 01:02:24;;;;;;;2.50;2.30;;;21.70;63.40;;;;;;5093262;28;20521;-36
2022/08/13 01:04:50;;;;;;;6.20;2.60;;;21.70;62.40;;;;;;5092926;28;20449;-36
2022/08/13 01:07:20;;;;;;;2.40;2.20;;;21.70;62.10;;;;;;5092670;28;20426;-36
2022/08/13 01:09:46;;;;;;;2.73;2.00;;;21.80;62.40;;;;;;5092903;28;20264;-36
2022/08/13 01:12:13;;;;;;;2.80;2.60;;;21.80;63.70;;;;;;5093051;28;20514;-36
2022/08/13 01:14:41;;;;;;;2.20;2.00;;;21.80;63.60;;;;;;5092924;28;20195;-36
2022/08/13 01:17:11;;;;;;;3.00;2.00;;;21.70;63.50;;;;;;5092247;28;20406;-36
2022/08/13 01:19:39;;;;;;;3.63;2.27;;;21.60;64.30;;;;;;5091250;28;20433;-37
2022/08/13 01:22:05;;;;;;;2.77;2.23;;;21.60;65.20;;;;;;5092448;28;20611;-36
2022/08/13 01:24:31;;;;;;;3.80;2.33;;;21.50;65.50;;;;;;5092620;28;20426;-36
2022/08/13 01:26:58;;;;;;;2.90;2.40;;;21.30;67.40;;;;;;5092275;28;20461;-36
2022/08/13 01:29:25;;;;;;;5.23;2.37;;;21.20;68.60;;;;;;5092465;28;20936;-36
2022/08/13 01:31:51;;;;;;;2.33;2.13;;;21.10;70.20;;;;;;5092690;28;20758;-36
2022/08/13 01:34:19;;;;;;;2.67;2.37;;;20.90;72.00;;;;;;5090472;28;20525;-36
2022/08/13 01:36:49;;;;;;;2.80;2.60;;;20.80;72.70;;;;;;5091608;28;20441;-36
2022/08/13 01:39:15;;;;;;;4.33;2.60;;;20.70;73.50;;;;;;5092681;28;20466;-36
2022/08/13 01:41:41;;;;;;;1.87;1.77;;;20.70;74.20;;;;;;5092560;28;20429;-36
2022/08/13 01:44:07;;;;;;;3.77;2.40;;;20.70;74.60;;;;;;5092362;28;20415;-36
2022/08/13 01:52:08;;;;;;;4.57;2.23;;;20.60;74.80;;;;;;5092035;28;20426;-36
2022/08/13 01:54:36;;;;;;;4.40;2.50;;;20.60;74.80;;;;;;5092436;28;20562;-36
2022/08/13 01:57:05;;;;;;;2.77;2.17;;;20.50;74.70;;;;;;5090038;28;20470;-36
2022/08/13 01:59:34;;;;;;;2.50;2.30;;;20.50;74.90;;;;;;5091791;28;20466;-36
2022/08/13 02:02:01;;;;;;;2.67;2.47;;;20.50;75.20;;;;;;5092028;28;20884;-36
2022/08/13 02:04:27;;;;;;;3.50;2.20;;;20.40;75.40;;;;;;5092111;28;20462;-36
2022/08/13 02:06:54;;;;;;;2.27;2.07;;;20.40;76.50;;;;;;5091234;28;20414;-36
2022/08/13 02:09:24;;;;;;;2.70;2.43;;;20.30;77.20;;;;;;5090350;28;20431;-36
2022/08/13 02:11:50;;;;;;;2.50;2.30;;;20.20;78.80;;;;;;5089597;28;20998;-36
2022/08/13 02:14:16;;;;;;;2.50;2.30;;;20.10;80.20;;;;;;5089211;28;20480;-36
2022/08/13 02:16:42;;;;;;;2.60;2.20;;;20.10;81.00;;;;;;5089899;28;20232;-36
2022/08/13 02:19:08;;;;;;;2.20;2.00;;;20.00;81.80;;;;;;5090636;28;20216;-36
2022/08/13 02:21:36;;;;;;;2.90;2.17;;;20.00;81.80;;;;;;5091505;28;20199;-36
2022/08/13 02:24:03;;;;;;;2.73;2.53;;;20.10;81.60;;;;;;5091507;28;20419;-36
2022/08/13 02:26:32;;;;;;;3.27;2.47;;;20.00;81.60;;;;;;5091543;28;20928;-36
2022/08/13 02:29:00;;;;;;;4.30;2.43;;;20.10;82.10;;;;;;5091328;28;20918;-36
2022/08/13 02:31:28;;;;;;;2.53;2.33;;;20.00;82.40;;;;;;5091545;28;20488;-36
2022/08/13 02:33:54;;;;;;;2.60;2.33;;;19.90;83.00;;;;;;5085901;28;20427;-36
2022/08/13 02:36:23;;;;;;;2.30;2.10;;;19.90;84.20;;;;;;5091341;28;20426;-36
2022/08/13 02:38:55;;;;;;;2.83;2.63;;;19.80;85.80;;;;;;5090680;28;20486;-36
2022/08/13 02:41:42;;;;;;;3.00;2.40;;;19.70;86.90;;;;;;5091068;28;20423;-36
2022/08/13 02:44:15;;;;;;;3.00;2.23;;;19.60;88.80;;;;;;5086689;28;20418;-36
2022/08/13 02:46:44;;;;;;;2.87;2.50;;;19.70;90.00;;;;;;5090661;28;20455;-36
2022/08/13 02:49:10;;;;;;;2.87;2.53;;;19.70;90.30;;;;;;5091051;28;20437;-36
2022/08/13 02:51:38;;;;;;;3.20;2.80;;;19.70;89.40;;;;;;5090923;28;20475;-36
2022/08/13 02:54:06;;;;;;;4.37;2.90;;;19.70;90.00;;;;;;5091042;28;20437;-36
2022/08/13 02:56:33;;;;;;;3.13;2.80;;;19.60;90.20;;;;;;5090817;28;20430;-36
2022/08/13 02:58:58;;;;;;;2.83;2.63;;;19.60;90.40;;;;;;5090888;28;20462;-36
2022/08/13 03:01:25;;;;;;;2.60;2.40;;;19.60;90.60;;;;;;5091011;28;20429;-36
2022/08/13 03:03:52;;;;;;;3.53;2.70;;;19.50;90.80;;;;;;5091055;28;20181;-36
2022/08/13 03:06:19;;;;;;;2.70;2.50;;;19.50;91.40;;;;;;5090467;28;20446;-36
2022/08/13 03:08:51;;;;;;;3.20;2.50;;;19.40;92.10;;;;;;5088826;28;20430;-36
2022/08/13 03:11:17;;;;;;;4.70;2.90;;;19.40;92.40;;;;;;5088079;28;20483;-36
2022/08/13 03:14:04;;;;;;;3.10;2.90;;;19.40;92.40;;;;;;5090855;28;20434;-36
2022/08/13 03:16:30;;;;;;;2.70;2.50;;;19.40;92.70;;;;;;5090346;28;20429;-36
2022/08/13 03:18:58;;;;;;;3.60;2.70;;;19.40;92.90;;;;;;5090131;28;20454;-36
2022/08/13 03:21:36;;;;;;;2.90;2.70;;;19.30;94.00;;;;;;5088725;28;20425;-36
2022/08/13 03:24:03;;;;;;;2.40;2.30;;;19.20;95.00;;;;;;5089294;28;20434;-36
2022/08/13 03:26:31;;;;;;;2.90;2.67;;;19.10;95.80;;;;;;5090387;28;20423;-36
2022/08/13 03:28:58;;;;;;;3.00;2.80;;;19.00;96.10;;;;;;5090257;28;20751;-36
2022/08/13 03:31:24;;;;;;;5.30;2.87;;;19.00;96.30;;;;;;5090092;28;20520;-36
2022/08/13 03:33:50;;;;;;;2.50;2.30;;;19.00;95.80;;;;;;5090444;28;20861;-36
2022/08/13 03:36:16;;;;;;;5.83;2.50;;;19.00;96.00;;;;;;5090222;28;20730;-36
2022/08/13 03:38:42;;;;;;;5.20;2.90;;;19.00;96.40;;;;;;5089639;28;20549;-36
2022/08/13 03:41:11;;;;;;;2.63;2.43;;;19.00;96.20;;;;;;5090158;28;20219;-36
2022/08/13 03:43:47;;;;;;;3.00;2.80;;;19.00;96.30;;;;;;5086419;28;20585;-36
2022/08/13 03:46:14;;;;;;;4.00;2.77;;;19.00;96.40;;;;;;5090107;28;20418;-36
2022/08/13 03:48:40;;;;;;;3.30;2.90;;;18.90;97.00;;;;;;5088006;28;20430;-36
2022/08/13 03:51:07;;;;;;;3.37;3.07;;;18.90;97.70;;;;;;5089958;28;20501;-36
2022/08/13 03:53:34;;;;;;;5.30;3.20;;;18.80;98.10;;;;;;5088568;28;20601;-36
2022/08/13 03:56:00;;;;;;;3.70;3.00;;;18.70;98.40;;;;;;5088735;28;20410;-36
2022/08/13 03:58:26;;;;;;;3.27;2.97;;;18.60;99.00;;;;;;5088787;28;21290;-36
2022/08/13 04:00:53;;;;;;;3.20;3.00;;;18.50;99.30;;;;;;5090027;28;20469;-36
2022/08/13 04:03:28;;;;;;;2.70;2.50;;;18.40;99.60;;;;;;5089827;28;20415;-36
2022/08/13 04:06:00;;;;;;;3.00;2.63;;;18.40;99.90;;;;;;5089619;28;20807;-36
2022/08/13 04:08:28;;;;;;;3.20;2.77;;;18.30;99.90;;;;;;5089183;28;20422;-36
2022/08/13 04:10:56;;;;;;;3.30;2.83;;;18.30;99.90;;;;;;5089336;28;20434;-36
2022/08/13 04:13:24;;;;;;;2.87;2.67;;;18.20;99.90;;;;;;5089723;28;20472;-36
2022/08/13 04:15:51;;;;;;;3.37;3.07;;;18.20;99.90;;;;;;5089595;28;20993;-36
2022/08/13 04:18:17;;;;;;;3.40;3.10;;;18.20;99.90;;;;;;5089077;28;20493;-36
2022/08/13 04:20:52;;;;;;;4.23;3.00;;;18.20;99.90;;;;;;5087390;28;20949;-36
2022/08/13 04:23:19;;;;;;;3.03;2.73;;;18.20;99.90;;;;;;5089330;28;20474;-36
2022/08/13 04:25:47;;;;;;;6.00;3.50;;;18.10;99.90;;;;;;5089708;28;20419;-36
2022/08/13 04:28:15;;;;;;;3.30;3.00;;;18.10;99.90;;;;;;5088966;28;20511;-35
2022/08/13 04:30:41;;;;;;;3.50;3.20;;;18.00;99.90;;;;;;5089475;28;20422;-35
2022/08/13 04:33:09;;;;;;;3.13;2.93;;;17.90;99.90;;;;;;5088849;28;20470;-36
2022/08/13 04:35:36;;;;;;;3.50;3.03;;;17.90;99.90;;;;;;5089378;28;20485;-36
2022/08/13 04:38:02;;;;;;;3.20;2.90;;;17.80;99.90;;;;;;5088527;28;20532;-36
2022/08/13 04:40:28;;;;;;;3.73;3.23;;;17.80;99.90;;;;;;5089531;28;20480;-36
2022/08/13 04:42:54;;;;;;;6.87;3.47;;;17.80;99.90;;;;;;5088005;28;20473;-36
2022/08/13 04:45:22;;;;;;;3.37;3.10;;;17.70;99.90;;;;;;5089306;28;20931;-36
2022/08/13 04:47:48;;;;;;;4.10;2.90;;;17.70;99.90;;;;;;5088624;28;20451;-35
2022/08/13 04:50:14;;;;;;;3.87;3.47;;;17.60;99.90;;;;;;5088945;28;20505;-36
2022/08/13 04:52:41;;;;;;;5.13;3.30;;;17.60;99.90;;;;;;5089152;28;20195;-36
2022/08/13 04:55:10;;;;;;;3.57;3.27;;;17.60;99.90;;;;;;5089420;28;20495;-36
2022/08/13 04:57:38;;;;;;;3.57;3.27;;;17.60;99.90;;;;;;5088573;28;20486;-36
2022/08/13 05:00:06;;;;;;;4.27;3.30;;;17.70;99.90;;;;;;5089221;28;20434;-36
2022/08/13 05:02:35;;;;;;;3.33;3.03;;;17.80;99.90;;;;;;5089350;28;20415;-36
2022/08/13 05:05:01;;;;;;;3.80;3.50;;;17.80;99.90;;;;;;5088724;28;20462;-36
2022/08/13 05:07:27;;;;;;;5.23;3.37;;;18.00;99.90;;;;;;5088561;28;20411;-36
2022/08/13 05:09:54;;;;;;;3.83;3.43;;;18.10;99.90;;;;;;5089314;28;20905;-36
2022/08/13 05:12:20;;;;;;;4.13;3.73;;;18.20;99.90;;;;;;5089250;28;20189;-36
2022/08/13 05:14:46;;;;;;;4.17;3.70;;;18.30;99.90;;;;;;5088944;28;20901;-36
2022/08/13 05:17:11;;;;;;;4.97;4.20;;;18.40;99.90;;;;;;5088459;28;20216;-36
2022/08/13 05:19:37;;;;;;;3.80;3.47;;;18.50;99.90;;;;;;5087004;28;20946;-36
2022/08/13 05:22:03;;;;;;;4.17;3.77;;;18.60;99.90;;;;;;5089048;28;20255;-36
2022/08/13 05:24:30;;;;;;;4.80;3.70;;;18.60;99.90;;;;;;5088956;28;20774;-36
2022/08/13 05:26:58;;;;;;;5.63;4.17;;;18.60;99.90;;;;;;5088550;28;20177;-36
2022/08/13 05:29:24;;;;;;;4.87;3.90;;;18.60;99.90;;;;;;5088773;28;20427;-36
2022/08/13 05:31:52;;;;;;;4.17;3.47;;;18.70;99.90;;;;;;5088771;28;20422;-36
2022/08/13 05:34:18;;;;;;;3.87;3.57;;;18.80;99.90;;;;;;5084453;28;20453;-36
2022/08/13 05:36:46;;;;;;;3.63;3.30;;;18.90;99.90;;;;;;5088345;28;20840;-36
2022/08/13 05:39:13;;;;;;;3.47;3.20;;;19.00;99.90;;;;;;5088770;28;20243;-36
2022/08/13 05:41:41;;;;;;;7.50;3.47;;;19.10;99.90;;;;;;5089002;28;20421;-36
2022/08/13 05:44:09;;;;;;;3.47;3.17;;;19.30;99.20;;;;;;5087296;28;20431;-36
2022/08/13 05:46:34;;;;;;;5.60;3.53;;;19.40;98.90;;;;;;5088968;28;20539;-36
2022/08/13 05:49:00;;;;;;;4.90;3.43;;;19.50;98.80;;;;;;5091807;28;20458;-36
2022/08/13 05:51:28;;;;;;;8.07;4.33;;;19.70;98.80;;;;;;5092402;28;20245;-36
2022/08/13 05:53:59;;;;;;;4.30;3.77;;;19.80;98.90;;;;;;5092281;28;20422;-36
2022/08/13 05:56:35;;;;;;;6.93;3.90;;;20.00;98.80;;;;;;5092181;28;20465;-36
2022/08/13 05:59:01;;;;;;;4.67;3.70;;;20.10;98.50;;;;;;5091800;28;20465;-36
2022/08/13 06:04:16;;;;;;;9.00;4.40;;;20.50;98.10;;;;;;5091962;28;20241;-36
2022/08/13 06:06:42;;;;;;;4.50;3.67;;;20.70;98.00;;;;;;5091374;28;20437;-36
2022/08/13 06:09:08;;;;;;;5.17;3.93;;;20.90;97.60;;;;;;5091708;28;20452;-36
2022/08/13 06:11:34;;;;;;;6.13;4.03;;;21.10;97.30;;;;;;5089857;28;20950;-36
2022/08/13 06:14:00;;;;;;;6.40;4.47;;;21.30;96.90;;;;;;5091278;28;20909;-36
2022/08/13 06:16:30;;;;;;;5.30;4.23;;;21.40;96.90;;;;;;5091749;28;20457;-36
2022/08/13 06:18:59;;;;;;;4.90;4.50;;;21.60;96.50;;;;;;5088174;28;20489;-36
2022/08/13 06:21:26;;;;;;;4.77;4.27;;;21.70;96.40;;;;;;5088935;28;20468;-36
2022/08/13 06:23:52;;;;;;;4.53;4.13;;;21.80;96.20;;;;;;5091683;28;20427;-36
2022/08/13 06:26:20;;;;;;;5.87;4.53;;;22.00;96.20;;;;;;5091048;28;20912;-36
2022/08/13 06:28:47;;;;;;;5.23;4.50;;;22.00;96.00;;;;;;5090495;28;20433;-36
2022/08/13 06:31:16;;;;;;;8.70;4.33;;;22.20;96.20;;;;;;5091510;28;20514;-36
2022/08/13 06:33:43;;;;;;;5.47;4.30;;;22.30;95.60;;;;;;5091850;28;20470;-36
2022/08/13 06:36:15;;;;;;;7.13;4.30;;;22.40;95.60;;;;;;5091653;28;20476;-36
2022/08/13 06:38:44;;;;;;;5.63;4.97;;;22.50;95.40;;;;;;5088869;28;20508;-36
2022/08/13 06:41:11;;;;;;;9.27;4.80;;;22.60;95.30;;;;;;5085889;28;20439;-36
2022/08/13 06:43:52;;;;;;;6.87;4.73;;;22.70;95.20;;;;;;5090805;28;20421;-36
2022/08/13 06:46:25;;;;;;;4.60;4.07;;;22.80;95.00;;;;;;5088909;28;20429;-37
2022/08/13 06:48:52;;;;;;;5.07;4.57;;;23.00;94.80;;;;;;5090519;28;20427;-36
2022/08/13 06:51:19;;;;;;;4.80;3.90;;;23.10;94.70;;;;;;5090763;28;20492;-36
2022/08/13 06:53:45;;;;;;;3.90;3.60;;;23.30;94.10;;;;;;5091147;28;20430;-36
2022/08/13 06:56:16;;;;;;;5.80;4.67;;;23.40;94.10;;;;;;5090557;28;20465;-36
2022/08/13 06:58:49;;;;;;;4.20;3.80;;;23.50;93.50;;;;;;5089062;28;20490;-36
2022/08/13 07:01:23;;;;;;;8.83;4.43;;;23.70;93.00;;;;;;5090942;28;20426;-37
2022/08/13 07:03:49;;;;;;;4.23;3.70;;;23.80;92.80;;;;;;5090682;28;20448;-36
2022/08/13 07:06:16;;;;;;;3.30;3.10;;;23.90;92.50;;;;;;5089405;28;20523;-36
2022/08/13 07:08:43;;;;;;;3.90;3.40;;;24.00;92.00;;;;;;5087283;28;20441;-38
2022/08/13 07:11:24;;;;;;;3.43;3.20;;;24.30;91.30;;;;;;5087099;28;20830;-36
2022/08/13 07:14:00;;;;;;;3.73;3.23;;;24.30;91.60;;;;;;5090662;28;20766;-37
2022/08/13 07:16:30;;;;;;;3.30;3.03;;;24.50;90.80;;;;;;5088941;28;20804;-37
2022/08/13 07:18:59;;;;;;;3.37;3.10;;;24.50;90.50;;;;;;5081082;28;20482;-37
2022/08/13 07:21:26;;;;;;;3.70;3.00;;;24.50;90.20;;;;;;5088787;28;20757;-37
2022/08/13 07:23:53;;;;;;;4.73;3.10;;;24.50;90.30;;;;;;5090630;28;20422;-37
2022/08/13 07:26:21;;;;;;;3.30;3.00;;;24.50;90.10;;;;;;5089705;28;20426;-36
2022/08/13 07:28:52;;;;;;;3.47;3.17;;;24.60;88.40;;;;;;5089353;28;20841;-37
2022/08/13 07:31:27;;;;;;;3.30;2.83;;;24.70;87.80;;;;;;5090482;28;20444;-36
2022/08/13 07:33:54;;;;;;;4.50;2.90;;;24.70;90.10;;;;;;5090628;28;20483;-36
2022/08/13 07:36:21;;;;;;;3.37;3.07;;;24.70;88.40;;;;;;5090101;28;20438;-37
2022/08/13 07:38:48;;;;;;;3.97;3.13;;;24.90;85.40;;;;;;5089595;28;20938;-37
2022/08/13 07:41:14;;;;;;;3.10;2.90;;;25.00;85.20;;;;;;5087792;28;20438;-37
2022/08/13 07:43:44;;;;;;;3.60;3.13;;;25.10;85.60;;;;;;5088007;28;20430;-36
2022/08/13 07:46:17;;;;;;;3.67;3.10;;;25.00;84.80;;;;;;5088104;28;20441;-37
2022/08/13 07:48:51;;;;;;;3.03;2.73;;;25.10;84.30;;;;;;5088865;28;20776;-37
2022/08/13 07:51:19;;;;;;;2.80;2.60;;;25.10;83.60;;;;;;5077112;28;20425;-37
2022/08/13 07:53:53;;;;;;;3.70;3.10;;;25.20;84.50;;;;;;5089607;28;20575;-37
2022/08/13 07:56:21;;;;;;;3.40;3.10;;;25.20;82.30;;;;;;5088702;28;20445;-37
2022/08/13 07:58:47;;;;;;;3.70;3.40;;;25.20;82.60;;;;;;5089204;28;20462;-37
2022/08/13 08:01:13;;;;;;;3.33;3.03;;;25.20;83.00;;;;;;5089446;28;20423;-36
2022/08/13 08:03:41;;;;;;;3.20;3.00;;;25.20;81.80;;;;;;5089189;28;20193;-37
2022/08/13 08:06:10;;;;;;;3.80;2.70;;;25.20;82.40;;;;;;5089496;28;20454;-37
2022/08/13 08:08:42;;;;;;;3.43;3.03;;;25.20;82.70;;;;;;5088117;28;20438;-37
2022/08/13 08:12:30;;;;;;;3.53;3.23;;;25.20;81.40;;;;;;5089745;28;20535;-37
2022/08/13 08:14:00;;;;;;;3.37;3.07;;;25.20;80.30;;;;;;5088077;28;20427;-37
2022/08/13 08:16:29;;;;;;;3.93;3.50;;;25.30;81.30;;;;;;5088120;28;20430;-37
2022/08/13 08:18:55;;;;;;;3.10;2.90;;;25.20;81.10;;;;;;5088894;28;20469;-36
2022/08/13 08:21:23;;;;;;;3.57;3.10;;;25.20;81.20;;;;;;5087975;28;20472;-36
2022/08/13 08:23:51;;;;;;;3.50;3.20;;;25.30;81.80;;;;;;5089763;28;20521;-37
2022/08/13 08:26:18;;;;;;;4.00;3.50;;;25.30;81.00;;;;;;5089360;28;20430;-37
2022/08/13 08:28:46;;;;;;;6.47;3.80;;;25.30;80.90;;;;;;5088977;28;20434;-37
2022/08/13 08:31:12;;;;;;;5.70;3.70;;;25.40;79.90;;;;;;5089016;28;20442;-37
2022/08/13 08:33:42;;;;;;;4.27;3.47;;;25.40;79.30;;;;;;5089622;28;20862;-37
2022/08/13 08:36:08;;;;;;;5.37;3.57;;;25.40;79.20;;;;;;5089362;28;20426;-36
2022/08/13 08:44:16;;;;;;;5.10;3.77;;;25.60;75.50;;;;;;5089275;28;20509;-36
2022/08/13 08:46:44;;;;;;;3.70;3.40;;;25.70;77.40;;;;;;5087298;28;20513;-36
2022/08/13 08:49:10;;;;;;;3.90;3.17;;;25.70;76.70;;;;;;5089218;28;20477;-36
2022/08/13 08:51:36;;;;;;;3.10;2.80;;;25.70;76.00;;;;;;5089354;28;20461;-37
2022/08/13 08:54:02;;;;;;;3.07;2.50;;;25.80;75.90;;;;;;5087857;28;21063;-37
2022/08/13 08:56:33;;;;;;;3.03;2.80;;;25.90;74.70;;;;;;5084866;28;20189;-37
2022/08/13 08:58:59;;;;;;;3.13;2.93;;;26.00;74.00;;;;;;5088211;28;20867;-36
2022/08/13 09:01:25;;;;;;;2.50;2.30;;;26.00;74.40;;;;;;5087218;28;20541;-36
2022/08/13 09:03:56;;;;;;;3.03;2.73;;;26.10;74.20;;;;;;5085642;28;20449;-37
2022/08/13 09:06:23;;;;;;;3.00;2.80;;;26.20;75.10;;;;;;5089218;28;20188;-36
2022/08/13 09:08:52;;;;;;;3.50;2.50;;;26.20;75.00;;;;;;5082351;28;20921;-36
2022/08/13 09:11:19;;;;;;;3.13;2.87;;;26.30;73.40;;;;;;5084752;28;20811;-36
2022/08/13 09:13:49;;;;;;;3.30;3.00;;;26.40;72.80;;;;;;5087236;28;20422;-37
2022/08/13 09:16:17;;;;;;;4.07;3.10;;;26.40;72.40;;;;;;5088946;28;20446;-37
2022/08/13 09:18:44;;;;;;;3.20;2.90;;;26.50;70.90;;;;;;5088278;28;20973;-36
2022/08/13 09:21:10;;;;;;;5.20;2.93;;;26.50;72.00;;;;;;5091679;28;20421;-37
2022/08/13 09:23:42;;;;;;;2.93;2.70;;;26.60;73.10;;;;;;5092862;28;20984;-37
2022/08/13 09:26:10;;;;;;;2.63;2.43;;;26.60;72.60;;;;;;5092750;28;20199;-36
2022/08/13 09:28:38;;;;;;;3.30;3.00;;;26.70;71.30;;;;;;5092051;28;20434;-37
2022/08/13 09:31:04;;;;;;;3.10;2.90;;;26.90;72.90;;;;;;5091200;28;20913;-37
2022/08/13 09:33:33;;;;;;;3.30;2.70;;;27.00;70.80;;;;;;5092545;28;20422;-37
2022/08/13 09:35:58;;;;;;;2.57;2.47;;;27.10;68.90;;;;;;5092388;28;20430;-36
2022/08/13 09:38:26;;;;;;;3.13;2.90;;;27.20;66.80;;;;;;5091886;28;20491;-36
2022/08/13 09:40:59;;;;;;;3.90;2.70;;;27.30;66.40;;;;;;5079999;28;20307;-37
2022/08/13 09:43:38;;;;;;;3.17;2.50;;;27.50;65.70;;;;;;5080553;27;20466;-36
2022/08/13 09:46:05;;;;;;;3.10;2.80;;;27.60;67.30;;;;;;5091966;28;20982;-37
2022/08/13 09:48:30;;;;;;;3.00;2.70;;;27.70;65.70;;;;;;5090893;27;20465;-37
2022/08/13 09:50:56;;;;;;;2.70;2.50;;;27.80;65.70;;;;;;5091119;28;20446;-36
2022/08/13 09:53:25;;;;;;;2.80;2.60;;;27.90;67.20;;;;;;5097116;27;20220;-37
2022/08/13 09:55:52;;;;;;;3.87;2.80;;;28.10;65.60;;;;;;5091703;28;20200;-38
2022/08/13 09:58:18;;;;;;;2.60;2.50;;;28.20;65.60;;;;;;5087674;28;20540;-37
2022/08/13 10:00:47;;;;;;;2.80;2.60;;;28.30;65.00;;;;;;5091139;28;20450;-37
2022/08/13 10:03:14;;;;;;;3.77;3.07;;;28.40;65.70;;;;;;5091561;28;20466;-36
2022/08/13 10:05:39;;;;;;;2.97;2.77;;;28.60;62.90;;;;;;5091505;28;20577;-37
2022/08/13 10:08:12;;;;;;;3.17;2.87;;;28.70;62.10;;;;;;5095529;28;20863;-37
2022/08/13 10:10:38;;;;;;;3.53;3.30;;;28.70;62.80;;;;;;5088437;28;20357;-36
2022/08/13 10:13:04;;;;;;;3.03;2.83;;;28.80;62.00;;;;;;5089578;28;21058;-36
2022/08/13 10:15:30;;;;;;;3.07;2.80;;;29.00;61.80;;;;;;5090237;28;20438;-37
2022/08/13 10:17:59;;;;;;;4.63;3.00;;;29.00;58.60;;;;;;5087199;28;20302;-37
2022/08/13 10:20:31;;;;;;;2.90;2.70;;;29.00;59.30;;;;;;5089199;28;20471;-37
2022/08/13 10:22:59;;;;;;;3.30;3.10;;;29.00;58.00;;;;;;5091437;28;20455;-36
2022/08/13 10:25:26;;;;;;;2.90;2.70;;;29.00;57.70;;;;;;5090364;28;20450;-37
2022/08/13 10:27:52;;;;;;;3.53;2.50;;;28.90;58.30;;;;;;5090642;28;20594;-37
2022/08/13 10:30:20;;;;;;;3.13;2.93;;;28.90;57.50;;;;;;5088994;28;20990;-37
2022/08/13 10:32:46;;;;;;;4.00;3.20;;;29.00;58.30;;;;;;5089319;28;20588;-36
2022/08/13 10:35:12;;;;;;;2.70;2.60;;;29.10;58.40;;;;;;5090122;28;20474;-37
2022/08/13 10:37:47;;;;;;;2.93;2.57;;;29.20;58.50;;;;;;5089492;28;20875;-37
2022/08/13 10:40:16;;;;;;;2.67;2.40;;;29.20;56.70;;;;;;5091059;28;20788;-37
2022/08/13 10:42:44;;;;;;;3.70;2.40;;;29.30;55.60;;;;;;5089811;28;20462;-37
2022/08/13 10:45:14;;;;;;;2.40;2.30;;;29.40;53.50;;;;;;5081803;28;20450;-37
2022/08/13 10:47:46;;;;;;;3.00;2.37;;;29.50;54.20;;;;;;5102130;27;20995;-36
2022/08/13 10:50:14;;;;;;;2.27;2.10;;;29.50;50.90;;;;;;5090913;28;20446;-37
2022/08/13 10:52:40;;;;;;;3.03;2.57;;;29.60;51.40;;;;;;5103210;27;20856;-36
2022/08/13 10:55:08;;;;;;;2.40;2.20;;;29.70;50.50;;;;;;5090432;28;20489;-36
2022/08/13 10:57:36;;;;;;;3.03;2.67;;;29.60;50.40;;;;;;5089388;28;20220;-37
2022/08/13 11:00:04;;;;;;;2.47;2.37;;;29.50;50.80;;;;;;5090535;28;20450;-37
2022/08/13 11:02:30;;;;;;;2.50;2.30;;;29.50;50.90;;;;;;5090519;28;20422;-37
2022/08/13 11:04:56;;;;;;;2.60;2.50;;;29.50;50.00;;;;;;5090632;28;20473;-36
2022/08/13 11:07:22;;;;;;;2.73;2.60;;;29.60;49.60;;;;;;5088735;28;20188;-36
2022/08/13 11:09:47;;;;;;;3.40;2.60;;;29.60;49.80;;;;;;5090638;28;20184;-37
2022/08/13 11:12:13;;;;;;;2.87;2.77;;;29.60;50.00;;;;;;5090967;28;20192;-37
2022/08/13 11:14:41;;;;;;;2.97;2.77;;;29.60;49.80;;;;;;5089944;28;20519;-37
2022/08/13 11:17:09;;;;;;;2.90;2.70;;;29.60;50.00;;;;;;5087131;28;20563;-37
2022/08/13 11:19:38;;;;;;;2.40;2.30;;;29.60;49.80;;;;;;5081424;28;20477;-36
2022/08/13 11:22:04;;;;;;;2.60;2.40;;;29.70;51.50;;;;;;5089939;28;20800;-36
2022/08/13 11:24:30;;;;;;;3.67;2.30;;;29.80;49.20;;;;;;5090220;28;20435;-36
2022/08/13 11:26:55;;;;;;;2.70;2.50;;;29.90;49.40;;;;;;5089725;28;20188;-37
2022/08/13 11:29:21;;;;;;;2.53;2.33;;;29.90;49.30;;;;;;5089873;28;20710;-36
2022/08/13 11:31:47;;;;;;;2.90;2.63;;;30.00;49.10;;;;;;5090528;28;20196;-37
2022/08/13 11:34:12;;;;;;;2.50;2.30;;;30.10;48.70;;;;;;5090606;28;20803;-36
2022/08/13 11:36:38;;;;;;;2.63;2.40;;;30.20;47.30;;;;;;5088978;28;20311;-37
2022/08/13 11:39:04;;;;;;;2.63;2.43;;;30.20;47.60;;;;;;5089953;28;20223;-37
2022/08/13 11:41:30;;;;;;;2.67;2.27;;;30.20;46.90;;;;;;5089554;28;20782;-37
2022/08/13 11:43:55;;;;;;;2.60;2.40;;;30.20;47.70;;;;;;5089917;28;20212;-37
2022/08/13 11:46:21;;;;;;;6.27;2.47;;;30.10;46.40;;;;;;5089367;28;20745;-37
2022/08/13 11:48:48;;;;;;;102.90;15.33;;;30.20;46.30;;;;;;5089432;28;20196;-37
2022/08/13 11:51:14;;;;;;;4.30;3.00;;;30.20;48.00;;;;;;5089897;28;21118;-39
2022/08/13 11:53:40;;;;;;;8.87;3.33;;;30.20;49.10;;;;;;5088648;28;20434;-39
2022/08/13 11:56:06;;;;;;;2.50;2.33;;;30.40;48.50;;;;;;5090080;28;20257;-38
2022/08/13 11:58:36;;;;;;;3.90;2.37;;;30.50;48.90;;;;;;5089121;28;20215;-38
2022/08/13 12:01:06;;;;;;;3.50;2.87;;;30.60;48.10;;;;;;5090069;28;20773;-36
2022/08/13 12:03:38;;;;;;;3.00;2.80;;;30.60;47.80;;;;;;5089815;28;20429;-36
2022/08/13 12:06:04;;;;;;;3.43;3.13;;;30.60;47.60;;;;;;5088454;28;20446;-36
2022/08/13 12:08:30;;;;;;;5.17;3.00;;;30.50;48.20;;;;;;5088328;28;20430;-36
2022/08/13 12:10:56;;;;;;;3.40;3.20;;;30.60;50.10;;;;;;5087535;28;20441;-36
2022/08/13 12:13:22;;;;;;;3.63;3.13;;;30.60;48.80;;;;;;5086394;28;20196;-37
2022/08/13 12:15:48;;;;;;;3.80;2.97;;;30.70;48.00;;;;;;5089461;28;20458;-36
2022/08/13 12:18:16;;;;;;;2.93;2.73;;;30.70;48.00;;;;;;5088615;28;20462;-36
2022/08/13 12:20:42;;;;;;;3.33;2.70;;;30.70;47.50;;;;;;5088647;28;20193;-37
2022/08/13 12:23:08;;;;;;;3.10;2.90;;;30.70;48.30;;;;;;5089536;28;20471;-36
2022/08/13 12:25:35;;;;;;;2.70;2.50;;;30.70;47.90;;;;;;5089577;28;20449;-36
2022/08/13 12:28:11;;;;;;;2.80;2.60;;;30.70;49.00;;;;;;5088745;28;20433;-36
2022/08/13 12:30:37;;;;;;;4.70;2.70;;;30.80;46.70;;;;;;5089449;28;20456;-36
2022/08/13 12:33:03;;;;;;;3.00;2.80;;;30.70;45.90;;;;;;5087779;28;20821;-36
2022/08/13 12:35:29;;;;;;;2.87;2.67;;;30.70;45.20;;;;;;5088079;28;20423;-36
2022/08/13 12:37:54;;;;;;;2.97;2.77;;;30.60;45.60;;;;;;5087713;28;20555;-36
2022/08/13 12:40:20;;;;;;;3.50;3.10;;;30.60;48.30;;;;;;5088466;28;20184;-37
2022/08/13 12:42:46;;;;;;;4.27;2.83;;;30.60;46.20;;;;;;5084719;28;20193;-37
2022/08/13 12:45:13;;;;;;;4.00;3.10;;;30.60;46.90;;;;;;5085958;28;20569;-37
2022/08/13 12:47:40;;;;;;;3.50;3.20;;;30.60;46.20;;;;;;5087239;28;20181;-36
2022/08/13 12:50:06;;;;;;;3.30;3.00;;;30.60;46.00;;;;;;5088040;28;21000;-36
2022/08/13 12:52:32;;;;;;;3.20;3.00;;;30.60;46.00;;;;;;5088111;28;20797;-37
2022/08/13 12:54:58;;;;;;;3.10;2.80;;;30.60;44.90;;;;;;5090408;28;20426;-36
2022/08/13 12:57:24;;;;;;;3.50;3.20;;;30.60;46.40;;;;;;5091490;28;20620;-36
2022/08/13 12:59:50;;;;;;;3.53;2.90;;;30.60;47.70;;;;;;5091980;28;20476;-36
2022/08/13 13:02:16;;;;;;;4.60;3.20;;;30.60;48.10;;;;;;5092964;28;20264;-36
2022/08/13 13:04:43;;;;;;;3.30;3.00;;;30.60;48.00;;;;;;5092926;28;20712;-37
2022/08/13 13:07:09;;;;;;;2.97;2.77;;;30.80;48.00;;;;;;5092154;28;20443;-36
2022/08/13 13:09:35;;;;;;;2.70;2.50;;;30.90;45.40;;;;;;5092090;28;20430;-36